Mendon, Massachusetts
Current Conditions -  °F | °C
As of 11:15 PM on Friday 24 Oct 2014 (Local Time) from KSFZ Reporting Station
Overcast Overcast  
Wind Chill: 45°   Ceiling: 2600
Heat Index: 48°   Visibility: 10mi
Dew Point: 36°   Wind: 7mph
Humidity: 62%   Direction: 320°NW
Pressure: 29.74"   Gusts: NA
Location:  42.11°N, 71.55°W
Report Text: KSFZ 250315Z 32006KT 10SM OVC026 09/02 A2974 RMK AO1
Loading
Personal Weather Stations






























Interactive Weather Map
Tropical Storm Tracking
New forecast layout! Learn more

10-Day Weather Forecast

Advertisements
Track Severe Weather on mobile